sensor_id;sensor_type;location;lat;lon;timestamp;P1;durP1;ratioP1;P2;durP2;ratioP2
34134;SDS011;20410;55.578;12.968;2024-01-06T00:00:29;5.73;;;5.13;;
34134;SDS011;20410;55.578;12.968;2024-01-06T00:02:55;5.00;;;3.90;;
34134;SDS011;20410;55.578;12.968;2024-01-06T00:05:20;6.37;;;5.07;;
34134;SDS011;20410;55.578;12.968;2024-01-06T00:07:46;8.27;;;5.63;;
34134;SDS011;20410;55.578;12.968;2024-01-06T00:10:12;6.13;;;5.00;;
34134;SDS011;20410;55.578;12.968;2024-01-06T00:12:37;6.37;;;5.30;;
34134;SDS011;20410;55.578;12.968;2024-01-06T00:15:03;8.37;;;6.67;;
34134;SDS011;20410;55.578;12.968;2024-01-06T00:17:29;6.87;;;6.00;;
34134;SDS011;20410;55.578;12.968;2024-01-06T00:19:54;6.80;;;5.53;;
34134;SDS011;20410;55.578;12.968;2024-01-06T00:22:20;7.33;;;5.87;;
34134;SDS011;20410;55.578;12.968;2024-01-06T00:24:46;7.67;;;5.37;;
34134;SDS011;20410;55.578;12.968;2024-01-06T00:27:11;10.97;;;6.43;;
34134;SDS011;20410;55.578;12.968;2024-01-06T00:29:38;7.67;;;6.13;;
34134;SDS011;20410;55.578;12.968;2024-01-06T00:32:04;8.17;;;6.27;;
34134;SDS011;20410;55.578;12.968;2024-01-06T00:34:30;8.07;;;6.00;;
34134;SDS011;20410;55.578;12.968;2024-01-06T00:36:55;7.27;;;5.87;;
34134;SDS011;20410;55.578;12.968;2024-01-06T00:39:21;6.77;;;5.10;;
34134;SDS011;20410;55.578;12.968;2024-01-06T00:41:46;7.17;;;5.53;;
34134;SDS011;20410;55.578;12.968;2024-01-06T00:44:12;5.53;;;5.03;;
34134;SDS011;20410;55.578;12.968;2024-01-06T00:46:38;6.07;;;4.90;;
34134;SDS011;20410;55.578;12.968;2024-01-06T00:49:04;7.37;;;5.83;;
34134;SDS011;20410;55.578;12.968;2024-01-06T00:51:30;6.33;;;5.70;;
34134;SDS011;20410;55.578;12.968;2024-01-06T00:53:55;7.07;;;6.10;;
34134;SDS011;20410;55.578;12.968;2024-01-06T00:56:21;7.07;;;5.63;;
34134;SDS011;20410;55.578;12.968;2024-01-06T00:58:47;7.23;;;5.50;;
34134;SDS011;20410;55.578;12.968;2024-01-06T01:01:13;6.77;;;5.03;;
34134;SDS011;20410;55.578;12.968;2024-01-06T01:03:38;9.13;;;5.23;;
34134;SDS011;20410;55.578;12.968;2024-01-06T01:06:04;5.87;;;5.10;;
34134;SDS011;20410;55.578;12.968;2024-01-06T01:08:29;7.00;;;5.60;;
34134;SDS011;20410;55.578;12.968;2024-01-06T01:10:55;7.70;;;5.57;;
34134;SDS011;20410;55.578;12.968;2024-01-06T01:13:22;7.27;;;5.70;;
34134;SDS011;20410;55.578;12.968;2024-01-06T01:15:48;9.77;;;6.47;;
34134;SDS011;20410;55.578;12.968;2024-01-06T01:18:13;6.53;;;5.50;;
34134;SDS011;20410;55.578;12.968;2024-01-06T01:20:39;8.50;;;5.53;;
34134;SDS011;20410;55.578;12.968;2024-01-06T01:23:06;8.23;;;6.13;;
34134;SDS011;20410;55.578;12.968;2024-01-06T01:25:32;4.50;;;4.10;;
34134;SDS011;20410;55.578;12.968;2024-01-06T01:27:58;6.20;;;4.73;;
34134;SDS011;20410;55.578;12.968;2024-01-06T01:30:24;5.97;;;4.57;;
34134;SDS011;20410;55.578;12.968;2024-01-06T01:32:49;8.17;;;5.13;;
34134;SDS011;20410;55.578;12.968;2024-01-06T01:35:15;6.67;;;5.53;;
34134;SDS011;20410;55.578;12.968;2024-01-06T01:37:40;5.23;;;4.73;;
34134;SDS011;20410;55.578;12.968;2024-01-06T01:40:06;6.37;;;5.27;;
34134;SDS011;20410;55.578;12.968;2024-01-06T01:42:32;6.43;;;4.17;;
34134;SDS011;20410;55.578;12.968;2024-01-06T01:44:58;3.77;;;3.33;;
34134;SDS011;20410;55.578;12.968;2024-01-06T01:47:23;5.23;;;4.47;;
34134;SDS011;20410;55.578;12.968;2024-01-06T01:49:49;6.50;;;5.13;;
34134;SDS011;20410;55.578;12.968;2024-01-06T01:52:15;6.57;;;5.03;;
34134;SDS011;20410;55.578;12.968;2024-01-06T01:54:41;4.90;;;4.40;;
34134;SDS011;20410;55.578;12.968;2024-01-06T01:57:08;7.17;;;5.80;;
34134;SDS011;20410;55.578;12.968;2024-01-06T01:59:35;5.33;;;3.67;;
34134;SDS011;20410;55.578;12.968;2024-01-06T02:02:02;7.37;;;5.00;;
34134;SDS011;20410;55.578;12.968;2024-01-06T02:04:27;7.67;;;5.57;;
34134;SDS011;20410;55.578;12.968;2024-01-06T02:06:53;7.40;;;5.03;;
34134;SDS011;20410;55.578;12.968;2024-01-06T02:09:19;7.00;;;4.60;;
34134;SDS011;20410;55.578;12.968;2024-01-06T02:11:44;6.67;;;4.90;;
34134;SDS011;20410;55.578;12.968;2024-01-06T02:14:10;6.77;;;4.70;;
34134;SDS011;20410;55.578;12.968;2024-01-06T02:16:35;8.50;;;6.00;;
34134;SDS011;20410;55.578;12.968;2024-01-06T02:19:01;5.73;;;5.03;;
34134;SDS011;20410;55.578;12.968;2024-01-06T02:21:27;7.87;;;5.73;;
34134;SDS011;20410;55.578;12.968;2024-01-06T02:23:53;5.93;;;5.33;;
34134;SDS011;20410;55.578;12.968;2024-01-06T02:26:19;7.57;;;5.40;;
34134;SDS011;20410;55.578;12.968;2024-01-06T02:28:44;10.40;;;5.77;;
34134;SDS011;20410;55.578;12.968;2024-01-06T02:31:12;6.97;;;5.53;;
34134;SDS011;20410;55.578;12.968;2024-01-06T02:33:38;6.73;;;5.20;;
34134;SDS011;20410;55.578;12.968;2024-01-06T02:36:04;7.00;;;5.47;;
34134;SDS011;20410;55.578;12.968;2024-01-06T02:38:29;6.27;;;4.47;;
34134;SDS011;20410;55.578;12.968;2024-01-06T02:40:55;6.87;;;3.50;;
34134;SDS011;20410;55.578;12.968;2024-01-06T02:43:20;5.90;;;5.10;;
34134;SDS011;20410;55.578;12.968;2024-01-06T02:45:48;5.30;;;4.30;;
34134;SDS011;20410;55.578;12.968;2024-01-06T02:48:13;6.50;;;5.20;;
34134;SDS011;20410;55.578;12.968;2024-01-06T02:50:39;6.93;;;5.13;;
34134;SDS011;20410;55.578;12.968;2024-01-06T02:53:04;6.40;;;4.37;;
34134;SDS011;20410;55.578;12.968;2024-01-06T02:55:30;7.37;;;5.20;;
34134;SDS011;20410;55.578;12.968;2024-01-06T02:57:55;6.93;;;5.27;;
34134;SDS011;20410;55.578;12.968;2024-01-06T03:00:21;8.33;;;5.30;;
34134;SDS011;20410;55.578;12.968;2024-01-06T03:02:46;7.30;;;5.30;;
34134;SDS011;20410;55.578;12.968;2024-01-06T03:05:12;5.27;;;3.90;;
34134;SDS011;20410;55.578;12.968;2024-01-06T03:07:37;6.73;;;5.53;;
34134;SDS011;20410;55.578;12.968;2024-01-06T03:10:03;6.27;;;5.10;;
34134;SDS011;20410;55.578;12.968;2024-01-06T03:12:29;7.17;;;4.70;;
34134;SDS011;20410;55.578;12.968;2024-01-06T03:14:54;5.43;;;4.43;;
34134;SDS011;20410;55.578;12.968;2024-01-06T03:17:20;7.03;;;4.47;;
34134;SDS011;20410;55.578;12.968;2024-01-06T03:19:45;8.97;;;4.80;;
34134;SDS011;20410;55.578;12.968;2024-01-06T03:22:11;6.10;;;4.50;;
34134;SDS011;20410;55.578;12.968;2024-01-06T03:24:36;6.77;;;4.40;;
34134;SDS011;20410;55.578;12.968;2024-01-06T03:27:02;3.97;;;3.50;;
34134;SDS011;20410;55.578;12.968;2024-01-06T03:29:28;6.77;;;5.10;;
34134;SDS011;20410;55.578;12.968;2024-01-06T03:31:53;7.07;;;4.30;;
34134;SDS011;20410;55.578;12.968;2024-01-06T03:34:19;4.70;;;3.77;;
34134;SDS011;20410;55.578;12.968;2024-01-06T03:36:44;6.00;;;4.60;;
34134;SDS011;20410;55.578;12.968;2024-01-06T03:39:10;6.93;;;4.07;;
34134;SDS011;20410;55.578;12.968;2024-01-06T03:41:35;7.67;;;5.23;;
34134;SDS011;20410;55.578;12.968;2024-01-06T03:44:01;8.03;;;5.03;;
34134;SDS011;20410;55.578;12.968;2024-01-06T03:46:26;6.50;;;5.20;;
34134;SDS011;20410;55.578;12.968;2024-01-06T03:48:52;6.20;;;5.10;;
34134;SDS011;20410;55.578;12.968;2024-01-06T03:51:18;6.03;;;4.63;;
34134;SDS011;20410;55.578;12.968;2024-01-06T03:53:43;3.90;;;3.07;;
34134;SDS011;20410;55.578;12.968;2024-01-06T03:56:09;7.83;;;4.83;;
34134;SDS011;20410;55.578;12.968;2024-01-06T03:58:34;5.20;;;4.47;;
34134;SDS011;20410;55.578;12.968;2024-01-06T04:01:00;7.97;;;5.63;;
34134;SDS011;20410;55.578;12.968;2024-01-06T04:03:26;4.97;;;3.80;;
34134;SDS011;20410;55.578;12.968;2024-01-06T04:05:51;5.33;;;4.50;;
34134;SDS011;20410;55.578;12.968;2024-01-06T04:08:17;7.03;;;4.67;;
34134;SDS011;20410;55.578;12.968;2024-01-06T04:10:43;6.10;;;4.80;;
34134;SDS011;20410;55.578;12.968;2024-01-06T04:13:08;8.23;;;5.20;;
34134;SDS011;20410;55.578;12.968;2024-01-06T04:15:35;5.10;;;4.10;;
34134;SDS011;20410;55.578;12.968;2024-01-06T04:18:01;6.80;;;5.10;;
34134;SDS011;20410;55.578;12.968;2024-01-06T04:20:28;5.47;;;4.07;;
34134;SDS011;20410;55.578;12.968;2024-01-06T04:22:54;7.03;;;5.20;;
34134;SDS011;20410;55.578;12.968;2024-01-06T04:25:20;7.10;;;4.47;;
34134;SDS011;20410;55.578;12.968;2024-01-06T04:27:46;6.83;;;4.47;;
34134;SDS011;20410;55.578;12.968;2024-01-06T04:30:12;7.53;;;4.90;;
34134;SDS011;20410;55.578;12.968;2024-01-06T04:32:38;7.40;;;5.57;;
34134;SDS011;20410;55.578;12.968;2024-01-06T04:35:04;6.50;;;5.23;;
34134;SDS011;20410;55.578;12.968;2024-01-06T04:37:30;7.00;;;4.50;;
34134;SDS011;20410;55.578;12.968;2024-01-06T04:39:55;7.33;;;4.17;;
34134;SDS011;20410;55.578;12.968;2024-01-06T04:42:21;7.10;;;5.23;;
34134;SDS011;20410;55.578;12.968;2024-01-06T04:44:47;5.77;;;5.00;;
34134;SDS011;20410;55.578;12.968;2024-01-06T04:47:13;5.53;;;4.53;;
34134;SDS011;20410;55.578;12.968;2024-01-06T04:49:39;6.40;;;5.13;;
34134;SDS011;20410;55.578;12.968;2024-01-06T04:52:04;9.87;;;5.57;;
34134;SDS011;20410;55.578;12.968;2024-01-06T04:54:30;8.17;;;6.00;;
34134;SDS011;20410;55.578;12.968;2024-01-06T04:56:57;6.37;;;4.93;;
34134;SDS011;20410;55.578;12.968;2024-01-06T04:59:23;8.30;;;5.10;;
34134;SDS011;20410;55.578;12.968;2024-01-06T05:01:50;6.10;;;4.80;;
34134;SDS011;20410;55.578;12.968;2024-01-06T05:04:17;6.93;;;4.63;;
34134;SDS011;20410;55.578;12.968;2024-01-06T05:06:43;7.70;;;5.10;;
34134;SDS011;20410;55.578;12.968;2024-01-06T05:09:08;6.57;;;5.20;;
34134;SDS011;20410;55.578;12.968;2024-01-06T05:11:34;7.07;;;5.60;;
34134;SDS011;20410;55.578;12.968;2024-01-06T05:13:59;7.60;;;4.80;;
34134;SDS011;20410;55.578;12.968;2024-01-06T05:16:25;7.93;;;5.77;;
34134;SDS011;20410;55.578;12.968;2024-01-06T05:18:51;7.17;;;5.07;;
34134;SDS011;20410;55.578;12.968;2024-01-06T05:21:16;6.90;;;5.40;;
34134;SDS011;20410;55.578;12.968;2024-01-06T05:23:42;7.87;;;5.40;;
34134;SDS011;20410;55.578;12.968;2024-01-06T05:26:08;5.90;;;4.70;;
34134;SDS011;20410;55.578;12.968;2024-01-06T05:28:34;7.47;;;5.53;;
34134;SDS011;20410;55.578;12.968;2024-01-06T05:30:59;7.63;;;4.90;;
34134;SDS011;20410;55.578;12.968;2024-01-06T05:33:25;6.47;;;5.20;;
34134;SDS011;20410;55.578;12.968;2024-01-06T05:35:50;7.13;;;5.10;;
34134;SDS011;20410;55.578;12.968;2024-01-06T05:38:16;6.23;;;5.00;;
34134;SDS011;20410;55.578;12.968;2024-01-06T05:40:42;5.93;;;4.43;;
34134;SDS011;20410;55.578;12.968;2024-01-06T05:43:07;6.33;;;4.80;;
34134;SDS011;20410;55.578;12.968;2024-01-06T05:45:33;7.70;;;5.10;;
34134;SDS011;20410;55.578;12.968;2024-01-06T05:47:59;6.37;;;5.40;;
34134;SDS011;20410;55.578;12.968;2024-01-06T05:50:24;6.27;;;4.70;;
34134;SDS011;20410;55.578;12.968;2024-01-06T05:52:50;5.80;;;5.17;;
34134;SDS011;20410;55.578;12.968;2024-01-06T05:55:17;5.57;;;4.17;;
34134;SDS011;20410;55.578;12.968;2024-01-06T05:57:44;6.43;;;5.17;;
34134;SDS011;20410;55.578;12.968;2024-01-06T06:00:09;6.97;;;4.93;;
34134;SDS011;20410;55.578;12.968;2024-01-06T06:02:36;6.50;;;4.90;;
34134;SDS011;20410;55.578;12.968;2024-01-06T06:05:01;8.23;;;5.30;;
34134;SDS011;20410;55.578;12.968;2024-01-06T06:07:27;6.10;;;4.60;;
34134;SDS011;20410;55.578;12.968;2024-01-06T06:09:53;5.80;;;4.83;;
34134;SDS011;20410;55.578;12.968;2024-01-06T06:12:19;7.83;;;5.50;;
34134;SDS011;20410;55.578;12.968;2024-01-06T06:14:44;5.33;;;4.60;;
34134;SDS011;20410;55.578;12.968;2024-01-06T06:17:10;8.30;;;5.70;;
34134;SDS011;20410;55.578;12.968;2024-01-06T06:19:35;6.37;;;4.80;;
34134;SDS011;20410;55.578;12.968;2024-01-06T06:22:01;6.13;;;5.10;;
34134;SDS011;20410;55.578;12.968;2024-01-06T06:24:26;5.03;;;4.10;;
34134;SDS011;20410;55.578;12.968;2024-01-06T06:26:52;7.90;;;5.43;;
34134;SDS011;20410;55.578;12.968;2024-01-06T06:29:17;6.03;;;4.77;;
34134;SDS011;20410;55.578;12.968;2024-01-06T06:31:43;6.80;;;4.83;;
34134;SDS011;20410;55.578;12.968;2024-01-06T06:34:09;5.53;;;4.93;;
34134;SDS011;20410;55.578;12.968;2024-01-06T06:36:35;6.40;;;4.70;;
34134;SDS011;20410;55.578;12.968;2024-01-06T06:39:01;7.63;;;4.90;;
34134;SDS011;20410;55.578;12.968;2024-01-06T06:41:29;4.03;;;3.43;;
34134;SDS011;20410;55.578;12.968;2024-01-06T06:43:54;5.57;;;4.53;;
34134;SDS011;20410;55.578;12.968;2024-01-06T06:46:21;6.50;;;5.10;;
34134;SDS011;20410;55.578;12.968;2024-01-06T06:48:46;7.30;;;4.00;;
34134;SDS011;20410;55.578;12.968;2024-01-06T06:51:12;4.37;;;3.43;;
34134;SDS011;20410;55.578;12.968;2024-01-06T06:53:37;4.80;;;4.30;;
34134;SDS011;20410;55.578;12.968;2024-01-06T06:56:03;6.13;;;4.23;;
34134;SDS011;20410;55.578;12.968;2024-01-06T06:58:28;4.57;;;3.63;;
34134;SDS011;20410;55.578;12.968;2024-01-06T07:00:54;4.10;;;3.53;;
34134;SDS011;20410;55.578;12.968;2024-01-06T07:03:20;5.47;;;4.40;;
34134;SDS011;20410;55.578;12.968;2024-01-06T07:05:45;7.10;;;4.73;;
34134;SDS011;20410;55.578;12.968;2024-01-06T07:08:11;5.97;;;4.37;;
34134;SDS011;20410;55.578;12.968;2024-01-06T07:10:39;6.53;;;4.63;;
34134;SDS011;20410;55.578;12.968;2024-01-06T07:13:05;5.70;;;4.17;;
34134;SDS011;20410;55.578;12.968;2024-01-06T07:15:30;4.50;;;4.03;;
34134;SDS011;20410;55.578;12.968;2024-01-06T07:17:56;5.97;;;4.60;;
34134;SDS011;20410;55.578;12.968;2024-01-06T07:20:22;5.10;;;4.40;;
34134;SDS011;20410;55.578;12.968;2024-01-06T07:22:47;5.33;;;4.37;;
34134;SDS011;20410;55.578;12.968;2024-01-06T07:25:13;5.07;;;4.57;;
34134;SDS011;20410;55.578;12.968;2024-01-06T07:27:38;5.10;;;4.03;;
34134;SDS011;20410;55.578;12.968;2024-01-06T07:30:04;5.20;;;4.57;;
34134;SDS011;20410;55.578;12.968;2024-01-06T07:32:32;5.70;;;4.17;;
34134;SDS011;20410;55.578;12.968;2024-01-06T07:34:58;6.47;;;4.03;;
34134;SDS011;20410;55.578;12.968;2024-01-06T07:37:23;5.33;;;4.03;;
34134;SDS011;20410;55.578;12.968;2024-01-06T07:39:49;5.90;;;4.87;;
34134;SDS011;20410;55.578;12.968;2024-01-06T07:42:15;6.27;;;4.50;;
34134;SDS011;20410;55.578;12.968;2024-01-06T07:44:40;5.20;;;4.33;;
34134;SDS011;20410;55.578;12.968;2024-01-06T07:47:06;5.13;;;4.30;;
34134;SDS011;20410;55.578;12.968;2024-01-06T07:49:31;5.50;;;4.67;;
34134;SDS011;20410;55.578;12.968;2024-01-06T07:51:57;5.10;;;4.40;;
34134;SDS011;20410;55.578;12.968;2024-01-06T07:54:22;5.97;;;4.13;;
34134;SDS011;20410;55.578;12.968;2024-01-06T07:56:48;6.23;;;4.73;;
34134;SDS011;20410;55.578;12.968;2024-01-06T07:59:13;4.83;;;4.33;;
34134;SDS011;20410;55.578;12.968;2024-01-06T08:01:39;5.03;;;4.37;;
34134;SDS011;20410;55.578;12.968;2024-01-06T08:04:07;4.60;;;3.83;;
34134;SDS011;20410;55.578;12.968;2024-01-06T08:06:34;7.83;;;4.83;;
34134;SDS011;20410;55.578;12.968;2024-01-06T08:08:59;6.43;;;4.37;;
34134;SDS011;20410;55.578;12.968;2024-01-06T08:11:25;6.53;;;4.00;;
34134;SDS011;20410;55.578;12.968;2024-01-06T08:13:50;6.57;;;4.73;;
34134;SDS011;20410;55.578;12.968;2024-01-06T08:16:16;4.80;;;4.30;;
34134;SDS011;20410;55.578;12.968;2024-01-06T08:18:42;4.80;;;4.30;;
34134;SDS011;20410;55.578;12.968;2024-01-06T08:21:08;7.13;;;4.43;;
34134;SDS011;20410;55.578;12.968;2024-01-06T08:23:35;6.07;;;4.73;;
34134;SDS011;20410;55.578;12.968;2024-01-06T08:26:01;6.40;;;4.80;;
34134;SDS011;20410;55.578;12.968;2024-01-06T08:28:27;4.33;;;3.83;;
34134;SDS011;20410;55.578;12.968;2024-01-06T08:30:52;4.37;;;3.70;;
34134;SDS011;20410;55.578;12.968;2024-01-06T08:33:18;5.13;;;4.43;;
34134;SDS011;20410;55.578;12.968;2024-01-06T08:35:43;4.70;;;4.20;;
34134;SDS011;20410;55.578;12.968;2024-01-06T08:38:09;5.00;;;3.70;;
34134;SDS011;20410;55.578;12.968;2024-01-06T08:40:35;5.43;;;4.50;;
34134;SDS011;20410;55.578;12.968;2024-01-06T08:43:01;4.83;;;4.03;;
34134;SDS011;20410;55.578;12.968;2024-01-06T08:45:27;5.10;;;4.50;;
34134;SDS011;20410;55.578;12.968;2024-01-06T08:47:52;6.07;;;4.50;;
34134;SDS011;20410;55.578;12.968;2024-01-06T08:50:18;6.63;;;4.43;;
34134;SDS011;20410;55.578;12.968;2024-01-06T08:52:43;5.53;;;4.50;;
34134;SDS011;20410;55.578;12.968;2024-01-06T08:55:09;4.37;;;3.97;;
34134;SDS011;20410;55.578;12.968;2024-01-06T08:57:35;5.15;;;4.65;;
34134;SDS011;20410;55.578;12.968;2024-01-06T09:00:00;6.43;;;4.90;;
34134;SDS011;20410;55.578;12.968;2024-01-06T09:02:26;5.27;;;4.53;;
34134;SDS011;20410;55.578;12.968;2024-01-06T09:04:51;4.97;;;4.33;;
34134;SDS011;20410;55.578;12.968;2024-01-06T09:07:17;4.57;;;3.80;;
34134;SDS011;20410;55.578;12.968;2024-01-06T09:09:43;6.70;;;4.80;;
34134;SDS011;20410;55.578;12.968;2024-01-06T09:12:09;4.83;;;4.00;;
34134;SDS011;20410;55.578;12.968;2024-01-06T09:14:35;4.40;;;3.90;;
34134;SDS011;20410;55.578;12.968;2024-01-06T09:17:00;7.60;;;4.43;;
34134;SDS011;20410;55.578;12.968;2024-01-06T09:19:26;4.67;;;3.83;;
34134;SDS011;20410;55.578;12.968;2024-01-06T09:21:53;6.40;;;4.70;;
34134;SDS011;20410;55.578;12.968;2024-01-06T09:24:19;6.20;;;4.70;;
34134;SDS011;20410;55.578;12.968;2024-01-06T09:26:45;6.73;;;5.03;;
34134;SDS011;20410;55.578;12.968;2024-01-06T09:29:11;4.93;;;3.80;;
34134;SDS011;20410;55.578;12.968;2024-01-06T09:31:37;6.00;;;4.33;;
34134;SDS011;20410;55.578;12.968;2024-01-06T09:34:02;5.47;;;4.37;;
34134;SDS011;20410;55.578;12.968;2024-01-06T09:36:29;5.43;;;3.87;;
34134;SDS011;20410;55.578;12.968;2024-01-06T09:38:55;5.23;;;4.03;;
34134;SDS011;20410;55.578;12.968;2024-01-06T09:41:21;5.77;;;4.80;;
34134;SDS011;20410;55.578;12.968;2024-01-06T09:43:47;6.20;;;4.23;;
34134;SDS011;20410;55.578;12.968;2024-01-06T09:46:26;5.97;;;4.63;;
34134;SDS011;20410;55.578;12.968;2024-01-06T09:48:54;6.67;;;4.53;;
34134;SDS011;20410;55.578;12.968;2024-01-06T09:51:21;4.97;;;3.90;;
34134;SDS011;20410;55.578;12.968;2024-01-06T09:53:48;4.77;;;3.87;;
34134;SDS011;20410;55.578;12.968;2024-01-06T09:56:16;6.30;;;4.27;;
34134;SDS011;20410;55.578;12.968;2024-01-06T09:58:42;4.77;;;3.50;;
34134;SDS011;20410;55.578;12.968;2024-01-06T10:01:10;6.20;;;3.93;;
34134;SDS011;20410;55.578;12.968;2024-01-06T10:03:37;4.80;;;4.07;;
34134;SDS011;20410;55.578;12.968;2024-01-06T10:06:03;5.30;;;4.00;;
34134;SDS011;20410;55.578;12.968;2024-01-06T10:08:29;5.60;;;4.00;;
34134;SDS011;20410;55.578;12.968;2024-01-06T10:10:57;4.47;;;4.07;;
34134;SDS011;20410;55.578;12.968;2024-01-06T10:13:23;5.53;;;3.80;;
34134;SDS011;20410;55.578;12.968;2024-01-06T10:15:49;5.17;;;4.17;;
34134;SDS011;20410;55.578;12.968;2024-01-06T10:18:16;4.90;;;4.40;;
34134;SDS011;20410;55.578;12.968;2024-01-06T10:20:41;6.97;;;5.20;;
34134;SDS011;20410;55.578;12.968;2024-01-06T10:23:10;5.50;;;4.60;;
34134;SDS011;20410;55.578;12.968;2024-01-06T10:25:35;6.03;;;4.50;;
34134;SDS011;20410;55.578;12.968;2024-01-06T10:28:01;6.13;;;5.53;;
34134;SDS011;20410;55.578;12.968;2024-01-06T10:30:28;5.83;;;3.47;;
34134;SDS011;20410;55.578;12.968;2024-01-06T10:32:53;4.37;;;3.97;;
34134;SDS011;20410;55.578;12.968;2024-01-06T10:35:19;3.63;;;3.00;;
34134;SDS011;20410;55.578;12.968;2024-01-06T10:37:45;5.40;;;3.97;;
34134;SDS011;20410;55.578;12.968;2024-01-06T10:40:12;6.57;;;4.60;;
34134;SDS011;20410;55.578;12.968;2024-01-06T10:42:42;5.90;;;4.03;;
34134;SDS011;20410;55.578;12.968;2024-01-06T10:45:10;5.40;;;3.93;;
34134;SDS011;20410;55.578;12.968;2024-01-06T10:47:38;5.70;;;3.80;;
34134;SDS011;20410;55.578;12.968;2024-01-06T10:50:05;4.73;;;3.97;;
34134;SDS011;20410;55.578;12.968;2024-01-06T10:52:32;5.70;;;3.97;;
34134;SDS011;20410;55.578;12.968;2024-01-06T10:54:59;4.50;;;4.00;;
34134;SDS011;20410;55.578;12.968;2024-01-06T10:57:26;4.97;;;3.87;;
34134;SDS011;20410;55.578;12.968;2024-01-06T10:59:53;5.87;;;3.70;;
34134;SDS011;20410;55.578;12.968;2024-01-06T11:02:20;4.10;;;3.40;;
34134;SDS011;20410;55.578;12.968;2024-01-06T11:04:48;5.63;;;4.30;;
34134;SDS011;20410;55.578;12.968;2024-01-06T11:07:16;3.83;;;3.50;;
34134;SDS011;20410;55.578;12.968;2024-01-06T11:09:48;5.20;;;4.00;;
34134;SDS011;20410;55.578;12.968;2024-01-06T11:12:18;4.43;;;3.50;;
34134;SDS011;20410;55.578;12.968;2024-01-06T11:14:44;7.37;;;3.93;;
34134;SDS011;20410;55.578;12.968;2024-01-06T11:17:11;4.30;;;3.50;;
34134;SDS011;20410;55.578;12.968;2024-01-06T11:24:56;4.00;;;3.60;;
34134;SDS011;20410;55.578;12.968;2024-01-06T11:27:29;4.23;;;3.83;;
34134;SDS011;20410;55.578;12.968;2024-01-06T11:29:56;4.63;;;3.43;;
34134;SDS011;20410;55.578;12.968;2024-01-06T11:32:32;3.90;;;3.33;;
34134;SDS011;20410;55.578;12.968;2024-01-06T11:35:10;5.30;;;3.70;;
34134;SDS011;20410;55.578;12.968;2024-01-06T11:40:03;4.50;;;3.63;;
34134;SDS011;20410;55.578;12.968;2024-01-06T11:42:33;5.10;;;3.67;;
34134;SDS011;20410;55.578;12.968;2024-01-06T11:45:03;3.93;;;3.50;;
34134;SDS011;20410;55.578;12.968;2024-01-06T11:47:33;4.13;;;3.33;;
34134;SDS011;20410;55.578;12.968;2024-01-06T11:49:59;6.00;;;3.57;;
34134;SDS011;20410;55.578;12.968;2024-01-06T11:52:32;4.60;;;3.77;;
34134;SDS011;20410;55.578;12.968;2024-01-06T11:54:58;5.23;;;4.10;;
34134;SDS011;20410;55.578;12.968;2024-01-06T11:57:25;4.60;;;3.20;;
34134;SDS011;20410;55.578;12.968;2024-01-06T11:59:54;4.93;;;3.70;;
34134;SDS011;20410;55.578;12.968;2024-01-06T12:02:20;4.00;;;3.30;;
34134;SDS011;20410;55.578;12.968;2024-01-06T12:04:49;3.70;;;3.40;;
34134;SDS011;20410;55.578;12.968;2024-01-06T12:07:16;4.17;;;3.77;;
34134;SDS011;20410;55.578;12.968;2024-01-06T12:09:42;5.67;;;3.30;;
34134;SDS011;20410;55.578;12.968;2024-01-06T12:12:08;4.20;;;3.60;;
34134;SDS011;20410;55.578;12.968;2024-01-06T12:14:38;4.97;;;3.60;;
34134;SDS011;20410;55.578;12.968;2024-01-06T12:17:06;4.13;;;3.73;;
34134;SDS011;20410;55.578;12.968;2024-01-06T12:19:32;5.03;;;4.00;;
34134;SDS011;20410;55.578;12.968;2024-01-06T12:21:58;4.77;;;3.30;;
34134;SDS011;20410;55.578;12.968;2024-01-06T12:24:24;6.00;;;3.77;;
34134;SDS011;20410;55.578;12.968;2024-01-06T12:26:52;4.50;;;4.10;;
34134;SDS011;20410;55.578;12.968;2024-01-06T12:29:18;4.20;;;3.57;;
34134;SDS011;20410;55.578;12.968;2024-01-06T12:31:44;6.13;;;3.50;;
34134;SDS011;20410;55.578;12.968;2024-01-06T12:34:11;6.20;;;3.53;;
34134;SDS011;20410;55.578;12.968;2024-01-06T12:36:37;4.63;;;3.33;;
34134;SDS011;20410;55.578;12.968;2024-01-06T12:39:04;4.30;;;3.70;;
34134;SDS011;20410;55.578;12.968;2024-01-06T12:41:29;4.63;;;3.30;;
34134;SDS011;20410;55.578;12.968;2024-01-06T12:43:58;6.37;;;3.50;;
34134;SDS011;20410;55.578;12.968;2024-01-06T12:46:25;5.60;;;4.10;;
34134;SDS011;20410;55.578;12.968;2024-01-06T12:48:51;4.37;;;3.60;;
34134;SDS011;20410;55.578;12.968;2024-01-06T12:51:16;4.03;;;3.53;;
34134;SDS011;20410;55.578;12.968;2024-01-06T12:53:42;5.90;;;3.53;;
34134;SDS011;20410;55.578;12.968;2024-01-06T12:56:07;6.43;;;3.40;;
34134;SDS011;20410;55.578;12.968;2024-01-06T12:58:33;4.00;;;3.60;;
34134;SDS011;20410;55.578;12.968;2024-01-06T13:00:59;4.93;;;3.67;;
34134;SDS011;20410;55.578;12.968;2024-01-06T13:03:26;5.50;;;4.23;;
34134;SDS011;20410;55.578;12.968;2024-01-06T13:05:51;3.90;;;3.50;;
34134;SDS011;20410;55.578;12.968;2024-01-06T13:08:17;4.43;;;3.60;;
34134;SDS011;20410;55.578;12.968;2024-01-06T13:10:42;5.50;;;3.90;;
34134;SDS011;20410;55.578;12.968;2024-01-06T13:13:08;4.63;;;3.40;;
34134;SDS011;20410;55.578;12.968;2024-01-06T13:15:34;4.33;;;3.90;;
34134;SDS011;20410;55.578;12.968;2024-01-06T13:17:59;3.90;;;3.50;;
34134;SDS011;20410;55.578;12.968;2024-01-06T13:20:25;6.17;;;4.27;;
34134;SDS011;20410;55.578;12.968;2024-01-06T13:22:50;4.63;;;3.50;;
34134;SDS011;20410;55.578;12.968;2024-01-06T13:25:17;4.20;;;3.60;;
34134;SDS011;20410;55.578;12.968;2024-01-06T13:27:44;5.03;;;3.60;;
34134;SDS011;20410;55.578;12.968;2024-01-06T13:30:10;4.17;;;3.50;;
34134;SDS011;20410;55.578;12.968;2024-01-06T13:32:37;4.23;;;3.70;;
34134;SDS011;20410;55.578;12.968;2024-01-06T13:35:03;4.37;;;3.20;;
34134;SDS011;20410;55.578;12.968;2024-01-06T13:37:33;6.20;;;3.80;;
34134;SDS011;20410;55.578;12.968;2024-01-06T13:39:59;3.60;;;3.30;;
34134;SDS011;20410;55.578;12.968;2024-01-06T13:42:24;5.00;;;3.67;;
34134;SDS011;20410;55.578;12.968;2024-01-06T13:44:50;4.50;;;3.80;;
34134;SDS011;20410;55.578;12.968;2024-01-06T13:47:16;5.67;;;3.73;;
34134;SDS011;20410;55.578;12.968;2024-01-06T13:49:41;5.20;;;3.50;;
34134;SDS011;20410;55.578;12.968;2024-01-06T13:52:07;6.70;;;4.00;;
34134;SDS011;20410;55.578;12.968;2024-01-06T13:54:34;4.33;;;3.50;;
34134;SDS011;20410;55.578;12.968;2024-01-06T13:57:00;6.67;;;3.80;;
34134;SDS011;20410;55.578;12.968;2024-01-06T13:59:25;5.30;;;4.00;;
34134;SDS011;20410;55.578;12.968;2024-01-06T14:01:51;6.03;;;4.13;;
34134;SDS011;20410;55.578;12.968;2024-01-06T14:04:17;6.37;;;3.67;;
34134;SDS011;20410;55.578;12.968;2024-01-06T14:06:43;4.60;;;3.23;;
34134;SDS011;20410;55.578;12.968;2024-01-06T14:09:08;5.30;;;3.97;;
34134;SDS011;20410;55.578;12.968;2024-01-06T14:11:34;4.13;;;3.20;;
34134;SDS011;20410;55.578;12.968;2024-01-06T14:14:01;5.03;;;3.57;;
34134;SDS011;20410;55.578;12.968;2024-01-06T14:16:26;4.23;;;3.57;;
34134;SDS011;20410;55.578;12.968;2024-01-06T14:18:52;5.37;;;4.63;;
34134;SDS011;20410;55.578;12.968;2024-01-06T14:21:18;6.93;;;4.57;;
34134;SDS011;20410;55.578;12.968;2024-01-06T14:23:47;5.13;;;4.40;;
34134;SDS011;20410;55.578;12.968;2024-01-06T14:26:15;6.93;;;4.60;;
34134;SDS011;20410;55.578;12.968;2024-01-06T14:28:42;6.17;;;4.77;;
34134;SDS011;20410;55.578;12.968;2024-01-06T14:31:07;4.97;;;4.00;;
34134;SDS011;20410;55.578;12.968;2024-01-06T14:33:35;5.93;;;4.60;;